sensor_id;sensor_type;location;lat;lon;timestamp;P1;durP1;ratioP1;P2;durP2;ratioP2
66145;SDS011;52948;60.040;30.320;2023-02-15T00:02:39;3.70;;;1.70;;
66145;SDS011;52948;60.040;30.320;2023-02-15T00:07:41;4.47;;;1.90;;
66145;SDS011;52948;60.040;30.320;2023-02-15T00:12:43;5.35;;;1.67;;
66145;SDS011;52948;60.040;30.320;2023-02-15T00:17:46;3.80;;;1.67;;
66145;SDS011;52948;60.040;30.320;2023-02-15T00:22:48;3.20;;;1.65;;
66145;SDS011;52948;60.040;30.320;2023-02-15T00:27:51;2.97;;;1.55;;
66145;SDS011;52948;60.040;30.320;2023-02-15T00:32:53;2.72;;;1.60;;
66145;SDS011;52948;60.040;30.320;2023-02-15T00:37:55;3.58;;;1.67;;
66145;SDS011;52948;60.040;30.320;2023-02-15T00:42:58;3.47;;;1.95;;
66145;SDS011;52948;60.040;30.320;2023-02-15T00:48:01;5.68;;;2.47;;
66145;SDS011;52948;60.040;30.320;2023-02-15T00:53:03;5.40;;;2.30;;
66145;SDS011;52948;60.040;30.320;2023-02-15T00:58:11;6.10;;;2.75;;
66145;SDS011;52948;60.040;30.320;2023-02-15T01:03:15;5.65;;;2.15;;
66145;SDS011;52948;60.040;30.320;2023-02-15T01:08:18;5.82;;;2.03;;
66145;SDS011;52948;60.040;30.320;2023-02-15T01:13:20;4.95;;;2.10;;
66145;SDS011;52948;60.040;30.320;2023-02-15T01:18:23;5.18;;;2.05;;
66145;SDS011;52948;60.040;30.320;2023-02-15T01:23:25;8.35;;;2.55;;
66145;SDS011;52948;60.040;30.320;2023-02-15T01:28:27;6.03;;;1.88;;
66145;SDS011;52948;60.040;30.320;2023-02-15T01:33:30;4.20;;;1.50;;
66145;SDS011;52948;60.040;30.320;2023-02-15T01:38:33;4.85;;;2.08;;
66145;SDS011;52948;60.040;30.320;2023-02-15T01:43:40;3.85;;;1.50;;
66145;SDS011;52948;60.040;30.320;2023-02-15T01:48:47;4.00;;;1.30;;
66145;SDS011;52948;60.040;30.320;2023-02-15T01:59:26;2.08;;;1.58;;
66145;SDS011;52948;60.040;30.320;2023-02-15T02:04:37;3.40;;;1.55;;
66145;SDS011;52948;60.040;30.320;2023-02-15T02:09:42;6.88;;;1.75;;
66145;SDS011;52948;60.040;30.320;2023-02-15T02:14:44;3.63;;;1.95;;
66145;SDS011;52948;60.040;30.320;2023-02-15T02:19:54;3.13;;;1.65;;
66145;SDS011;52948;60.040;30.320;2023-02-15T02:46:22;2.47;;;1.50;;
66145;SDS011;52948;60.040;30.320;2023-02-15T02:51:30;3.42;;;1.50;;
66145;SDS011;52948;60.040;30.320;2023-02-15T02:56:35;3.17;;;2.10;;
66145;SDS011;52948;60.040;30.320;2023-02-15T03:01:44;4.90;;;2.47;;
66145;SDS011;52948;60.040;30.320;2023-02-15T03:07:10;2.70;;;1.40;;
66145;SDS011;52948;60.040;30.320;2023-02-15T03:12:19;4.32;;;1.40;;
66145;SDS011;52948;60.040;30.320;2023-02-15T03:17:23;3.95;;;1.40;;
66145;SDS011;52948;60.040;30.320;2023-02-15T03:22:30;5.82;;;1.40;;
66145;SDS011;52948;60.040;30.320;2023-02-15T03:28:07;5.45;;;1.35;;
66145;SDS011;52948;60.040;30.320;2023-02-15T03:33:12;3.15;;;1.38;;
66145;SDS011;52948;60.040;30.320;2023-02-15T03:38:17;5.22;;;1.58;;
66145;SDS011;52948;60.040;30.320;2023-02-15T03:43:30;3.90;;;1.63;;
66145;SDS011;52948;60.040;30.320;2023-02-15T03:48:36;4.22;;;2.00;;
66145;SDS011;52948;60.040;30.320;2023-02-15T03:53:42;5.20;;;2.78;;
66145;SDS011;52948;60.040;30.320;2023-02-15T03:58:45;4.97;;;2.60;;
66145;SDS011;52948;60.040;30.320;2023-02-15T04:04:20;7.10;;;3.17;;
66145;SDS011;52948;60.040;30.320;2023-02-15T04:09:25;4.80;;;2.25;;
66145;SDS011;52948;60.040;30.320;2023-02-15T04:14:46;4.13;;;2.55;;
66145;SDS011;52948;60.040;30.320;2023-02-15T04:20:07;4.60;;;2.33;;
66145;SDS011;52948;60.040;30.320;2023-02-15T04:25:31;4.38;;;1.92;;
66145;SDS011;52948;60.040;30.320;2023-02-15T04:30:34;3.33;;;1.52;;
66145;SDS011;52948;60.040;30.320;2023-02-15T04:35:37;3.40;;;1.73;;
66145;SDS011;52948;60.040;30.320;2023-02-15T04:40:40;3.53;;;2.22;;
66145;SDS011;52948;60.040;30.320;2023-02-15T04:45:47;5.72;;;1.92;;
66145;SDS011;52948;60.040;30.320;2023-02-15T04:50:52;4.57;;;1.80;;
66145;SDS011;52948;60.040;30.320;2023-02-15T04:55:54;4.38;;;1.98;;
66145;SDS011;52948;60.040;30.320;2023-02-15T05:00:57;6.03;;;2.90;;
66145;SDS011;52948;60.040;30.320;2023-02-15T05:05:59;5.93;;;1.83;;
66145;SDS011;52948;60.040;30.320;2023-02-15T05:11:01;4.10;;;1.40;;
66145;SDS011;52948;60.040;30.320;2023-02-15T05:16:04;3.30;;;2.03;;
66145;SDS011;52948;60.040;30.320;2023-02-15T05:21:10;7.95;;;2.20;;
66145;SDS011;52948;60.040;30.320;2023-02-15T05:26:17;5.32;;;1.80;;
66145;SDS011;52948;60.040;30.320;2023-02-15T05:31:41;4.45;;;2.25;;
66145;SDS011;52948;60.040;30.320;2023-02-15T05:36:43;7.55;;;1.80;;
66145;SDS011;52948;60.040;30.320;2023-02-15T05:41:46;4.20;;;1.60;;
66145;SDS011;52948;60.040;30.320;2023-02-15T05:46:48;2.55;;;1.65;;
66145;SDS011;52948;60.040;30.320;2023-02-15T05:51:54;6.00;;;2.72;;
66145;SDS011;52948;60.040;30.320;2023-02-15T05:56:56;2.30;;;1.70;;
66145;SDS011;52948;60.040;30.320;2023-02-15T06:01:59;3.40;;;1.77;;
66145;SDS011;52948;60.040;30.320;2023-02-15T06:07:02;2.78;;;1.75;;
66145;SDS011;52948;60.040;30.320;2023-02-15T06:12:04;3.85;;;2.17;;
66145;SDS011;52948;60.040;30.320;2023-02-15T06:17:07;5.32;;;1.88;;
66145;SDS011;52948;60.040;30.320;2023-02-15T06:22:09;5.78;;;1.80;;
66145;SDS011;52948;60.040;30.320;2023-02-15T06:27:11;4.40;;;2.20;;
66145;SDS011;52948;60.040;30.320;2023-02-15T06:32:14;3.80;;;2.25;;
66145;SDS011;52948;60.040;30.320;2023-02-15T06:37:16;3.72;;;1.88;;
66145;SDS011;52948;60.040;30.320;2023-02-15T06:42:18;6.10;;;2.13;;
66145;SDS011;52948;60.040;30.320;2023-02-15T06:47:24;4.03;;;1.90;;
66145;SDS011;52948;60.040;30.320;2023-02-15T06:52:28;6.93;;;2.30;;
66145;SDS011;52948;60.040;30.320;2023-02-15T06:57:31;3.97;;;2.50;;
66145;SDS011;52948;60.040;30.320;2023-02-15T07:02:34;4.45;;;2.38;;
66145;SDS011;52948;60.040;30.320;2023-02-15T07:07:40;5.95;;;2.50;;
66145;SDS011;52948;60.040;30.320;2023-02-15T07:12:47;2.85;;;2.50;;
66145;SDS011;52948;60.040;30.320;2023-02-15T07:17:53;5.65;;;2.80;;
66145;SDS011;52948;60.040;30.320;2023-02-15T07:22:55;7.15;;;2.90;;
66145;SDS011;52948;60.040;30.320;2023-02-15T07:27:58;6.40;;;3.10;;
66145;SDS011;52948;60.040;30.320;2023-02-15T07:33:00;7.70;;;2.30;;
66145;SDS011;52948;60.040;30.320;2023-02-15T07:38:21;3.83;;;2.00;;
66145;SDS011;52948;60.040;30.320;2023-02-15T07:43:24;7.80;;;2.53;;
66145;SDS011;52948;60.040;30.320;2023-02-15T07:48:26;6.80;;;2.58;;
66145;SDS011;52948;60.040;30.320;2023-02-15T07:53:29;3.75;;;2.10;;
66145;SDS011;52948;60.040;30.320;2023-02-15T07:58:32;5.72;;;2.53;;
66145;SDS011;52948;60.040;30.320;2023-02-15T08:03:53;6.57;;;2.78;;
66145;SDS011;52948;60.040;30.320;2023-02-15T08:08:56;9.70;;;4.80;;
66145;SDS011;52948;60.040;30.320;2023-02-15T08:24:19;6.47;;;2.00;;
66145;SDS011;52948;60.040;30.320;2023-02-15T08:29:23;3.65;;;2.15;;
66145;SDS011;52948;60.040;30.320;2023-02-15T08:34:29;4.07;;;2.33;;
66145;SDS011;52948;60.040;30.320;2023-02-15T08:39:32;3.72;;;2.50;;
66145;SDS011;52948;60.040;30.320;2023-02-15T08:44:35;6.85;;;2.90;;
66145;SDS011;52948;60.040;30.320;2023-02-15T08:49:38;7.50;;;2.50;;
66145;SDS011;52948;60.040;30.320;2023-02-15T08:54:40;8.93;;;3.00;;
66145;SDS011;52948;60.040;30.320;2023-02-15T08:59:42;9.40;;;3.80;;
66145;SDS011;52948;60.040;30.320;2023-02-15T09:04:44;8.95;;;4.97;;
66145;SDS011;52948;60.040;30.320;2023-02-15T09:09:47;12.65;;;4.88;;
66145;SDS011;52948;60.040;30.320;2023-02-15T09:14:50;11.82;;;5.40;;
66145;SDS011;52948;60.040;30.320;2023-02-15T09:19:53;10.73;;;5.32;;
66145;SDS011;52948;60.040;30.320;2023-02-15T09:24:55;10.77;;;5.43;;
66145;SDS011;52948;60.040;30.320;2023-02-15T09:29:57;13.23;;;6.60;;
66145;SDS011;52948;60.040;30.320;2023-02-15T09:34:59;13.85;;;6.38;;
66145;SDS011;52948;60.040;30.320;2023-02-15T09:40:02;11.90;;;5.80;;
66145;SDS011;52948;60.040;30.320;2023-02-15T09:45:21;13.07;;;5.82;;
66145;SDS011;52948;60.040;30.320;2023-02-15T09:50:32;14.73;;;5.75;;
66145;SDS011;52948;60.040;30.320;2023-02-15T10:16:41;10.48;;;5.55;;
66145;SDS011;52948;60.040;30.320;2023-02-15T10:28:04;13.00;;;7.33;;
66145;SDS011;52948;60.040;30.320;2023-02-15T10:33:45;16.20;;;7.88;;
66145;SDS011;52948;60.040;30.320;2023-02-15T10:38:49;15.80;;;7.80;;
66145;SDS011;52948;60.040;30.320;2023-02-15T11:00:08;14.43;;;7.57;;
66145;SDS011;52948;60.040;30.320;2023-02-15T11:10:30;16.98;;;8.77;;
66145;SDS011;52948;60.040;30.320;2023-02-15T11:31:44;21.20;;;8.38;;
66145;SDS011;52948;60.040;30.320;2023-02-15T11:36:48;18.00;;;8.63;;
66145;SDS011;52948;60.040;30.320;2023-02-15T11:41:53;20.70;;;8.32;;
66145;SDS011;52948;60.040;30.320;2023-02-15T11:46:58;18.25;;;7.88;;
66145;SDS011;52948;60.040;30.320;2023-02-15T11:52:01;17.50;;;8.00;;
66145;SDS011;52948;60.040;30.320;2023-02-15T11:57:28;21.23;;;8.10;;
66145;SDS011;52948;60.040;30.320;2023-02-15T12:02:29;16.63;;;7.10;;
66145;SDS011;52948;60.040;30.320;2023-02-15T12:07:37;15.73;;;8.05;;
66145;SDS011;52948;60.040;30.320;2023-02-15T12:12:45;18.05;;;6.82;;
66145;SDS011;52948;60.040;30.320;2023-02-15T12:17:48;17.92;;;7.55;;
66145;SDS011;52948;60.040;30.320;2023-02-15T12:22:59;15.90;;;6.18;;
66145;SDS011;52948;60.040;30.320;2023-02-15T12:28:17;14.43;;;5.43;;
66145;SDS011;52948;60.040;30.320;2023-02-15T12:33:28;15.00;;;6.30;;
66145;SDS011;52948;60.040;30.320;2023-02-15T12:38:33;16.83;;;6.90;;
66145;SDS011;52948;60.040;30.320;2023-02-15T12:43:36;15.65;;;6.75;;
66145;SDS011;52948;60.040;30.320;2023-02-15T12:48:39;13.30;;;6.63;;
66145;SDS011;52948;60.040;30.320;2023-02-15T12:53:42;14.07;;;6.45;;
66145;SDS011;52948;60.040;30.320;2023-02-15T12:58:44;24.70;;;7.30;;
66145;SDS011;52948;60.040;30.320;2023-02-15T13:04:03;19.98;;;7.30;;
66145;SDS011;52948;60.040;30.320;2023-02-15T13:19:28;19.80;;;7.63;;
66145;SDS011;52948;60.040;30.320;2023-02-15T13:29:45;20.10;;;7.78;;
66145;SDS011;52948;60.040;30.320;2023-02-15T13:34:57;19.98;;;7.82;;
66145;SDS011;52948;60.040;30.320;2023-02-15T13:55:38;27.35;;;7.82;;
66145;SDS011;52948;60.040;30.320;2023-02-15T14:27:44;13.73;;;4.97;;
66145;SDS011;52948;60.040;30.320;2023-02-15T14:33:15;14.77;;;5.63;;
66145;SDS011;52948;60.040;30.320;2023-02-15T14:38:30;11.77;;;5.38;;
66145;SDS011;52948;60.040;30.320;2023-02-15T14:49:27;10.13;;;4.72;;
66145;SDS011;52948;60.040;30.320;2023-02-15T15:05:11;12.95;;;4.68;;
66145;SDS011;52948;60.040;30.320;2023-02-15T15:25:53;15.90;;;6.78;;
66145;SDS011;52948;60.040;30.320;2023-02-15T15:52:52;11.50;;;5.65;;
66145;SDS011;52948;60.040;30.320;2023-02-15T15:57:57;13.18;;;5.40;;
66145;SDS011;52948;60.040;30.320;2023-02-15T16:03:13;15.55;;;6.07;;
66145;SDS011;52948;60.040;30.320;2023-02-15T16:08:25;16.35;;;5.82;;
66145;SDS011;52948;60.040;30.320;2023-02-15T16:13:28;14.70;;;5.55;;
66145;SDS011;52948;60.040;30.320;2023-02-15T16:18:30;13.63;;;5.60;;
66145;SDS011;52948;60.040;30.320;2023-02-15T16:28:40;13.88;;;5.30;;
66145;SDS011;52948;60.040;30.320;2023-02-15T16:33:52;11.57;;;5.07;;
66145;SDS011;52948;60.040;30.320;2023-02-15T16:44:03;11.95;;;5.65;;
66145;SDS011;52948;60.040;30.320;2023-02-15T16:49:19;11.75;;;5.15;;
66145;SDS011;52948;60.040;30.320;2023-02-15T16:54:24;10.10;;;4.50;;
66145;SDS011;52948;60.040;30.320;2023-02-15T16:59:38;12.30;;;4.95;;
66145;SDS011;52948;60.040;30.320;2023-02-15T17:04:44;12.00;;;5.18;;
66145;SDS011;52948;60.040;30.320;2023-02-15T17:09:49;10.73;;;5.18;;
66145;SDS011;52948;60.040;30.320;2023-02-15T17:14:54;9.20;;;5.00;;
66145;SDS011;52948;60.040;30.320;2023-02-15T17:19:56;11.77;;;5.88;;
66145;SDS011;52948;60.040;30.320;2023-02-15T17:25:00;14.63;;;6.18;;
66145;SDS011;52948;60.040;30.320;2023-02-15T17:30:17;16.48;;;6.63;;
66145;SDS011;52948;60.040;30.320;2023-02-15T17:35:26;14.15;;;6.22;;
66145;SDS011;52948;60.040;30.320;2023-02-15T17:40:33;14.65;;;5.75;;
66145;SDS011;52948;60.040;30.320;2023-02-15T17:45:46;14.65;;;6.38;;
66145;SDS011;52948;60.040;30.320;2023-02-15T17:50:53;13.07;;;6.38;;
66145;SDS011;52948;60.040;30.320;2023-02-15T17:56:20;16.73;;;5.78;;
66145;SDS011;52948;60.040;30.320;2023-02-15T18:01:23;16.70;;;6.32;;
66145;SDS011;52948;60.040;30.320;2023-02-15T18:06:44;15.38;;;6.60;;
66145;SDS011;52948;60.040;30.320;2023-02-15T18:12:14;12.77;;;7.00;;
66145;SDS011;52948;60.040;30.320;2023-02-15T18:17:25;13.75;;;6.38;;
66145;SDS011;52948;60.040;30.320;2023-02-15T18:22:33;15.30;;;7.38;;
66145;SDS011;52948;60.040;30.320;2023-02-15T18:28:00;10.70;;;5.40;;
66145;SDS011;52948;60.040;30.320;2023-02-15T18:33:03;14.70;;;6.38;;
66145;SDS011;52948;60.040;30.320;2023-02-15T18:38:05;13.55;;;6.93;;
66145;SDS011;52948;60.040;30.320;2023-02-15T18:43:11;14.93;;;6.85;;
66145;SDS011;52948;60.040;30.320;2023-02-15T18:48:17;12.43;;;6.82;;
66145;SDS011;52948;60.040;30.320;2023-02-15T18:53:20;18.17;;;7.90;;
66145;SDS011;52948;60.040;30.320;2023-02-15T18:58:22;20.13;;;8.38;;
66145;SDS011;52948;60.040;30.320;2023-02-15T19:03:26;16.20;;;7.05;;
66145;SDS011;52948;60.040;30.320;2023-02-15T19:08:33;21.25;;;9.63;;
66145;SDS011;52948;60.040;30.320;2023-02-15T19:13:35;18.80;;;8.60;;
66145;SDS011;52948;60.040;30.320;2023-02-15T19:18:37;19.45;;;7.50;;
66145;SDS011;52948;60.040;30.320;2023-02-15T19:23:40;16.52;;;6.32;;
66145;SDS011;52948;60.040;30.320;2023-02-15T19:28:42;15.30;;;6.90;;
66145;SDS011;52948;60.040;30.320;2023-02-15T19:33:45;17.60;;;7.07;;
66145;SDS011;52948;60.040;30.320;2023-02-15T19:38:51;14.63;;;6.80;;
66145;SDS011;52948;60.040;30.320;2023-02-15T19:43:57;13.73;;;5.85;;
66145;SDS011;52948;60.040;30.320;2023-02-15T19:49:01;16.30;;;6.45;;
66145;SDS011;52948;60.040;30.320;2023-02-15T19:54:08;14.23;;;6.40;;
66145;SDS011;52948;60.040;30.320;2023-02-15T19:59:22;12.60;;;5.22;;
66145;SDS011;52948;60.040;30.320;2023-02-15T20:04:25;13.98;;;5.90;;
66145;SDS011;52948;60.040;30.320;2023-02-15T20:09:29;14.77;;;5.70;;
66145;SDS011;52948;60.040;30.320;2023-02-15T20:14:33;8.00;;;3.97;;
66145;SDS011;52948;60.040;30.320;2023-02-15T20:19:35;16.00;;;5.18;;
66145;SDS011;52948;60.040;30.320;2023-02-15T20:24:39;18.77;;;5.05;;
66145;SDS011;52948;60.040;30.320;2023-02-15T20:29:42;12.90;;;4.70;;
66145;SDS011;52948;60.040;30.320;2023-02-15T20:34:44;9.43;;;4.60;;
66145;SDS011;52948;60.040;30.320;2023-02-15T20:39:46;8.40;;;4.18;;
66145;SDS011;52948;60.040;30.320;2023-02-15T20:44:49;13.07;;;5.35;;
66145;SDS011;52948;60.040;30.320;2023-02-15T20:49:51;13.20;;;4.78;;
66145;SDS011;52948;60.040;30.320;2023-02-15T20:54:55;9.98;;;4.28;;
66145;SDS011;52948;60.040;30.320;2023-02-15T20:59:58;13.48;;;4.30;;
66145;SDS011;52948;60.040;30.320;2023-02-15T21:05:00;8.82;;;3.60;;
66145;SDS011;52948;60.040;30.320;2023-02-15T21:10:02;7.82;;;3.28;;
66145;SDS011;52948;60.040;30.320;2023-02-15T21:20:26;7.07;;;3.53;;
66145;SDS011;52948;60.040;30.320;2023-02-15T21:25:33;11.23;;;3.45;;
66145;SDS011;52948;60.040;30.320;2023-02-15T21:30:36;8.65;;;4.05;;
66145;SDS011;52948;60.040;30.320;2023-02-15T21:35:40;7.63;;;3.05;;
66145;SDS011;52948;60.040;30.320;2023-02-15T21:40:43;7.82;;;3.10;;
66145;SDS011;52948;60.040;30.320;2023-02-15T21:45:46;6.53;;;3.63;;
66145;SDS011;52948;60.040;30.320;2023-02-15T21:51:23;6.80;;;3.30;;
66145;SDS011;52948;60.040;30.320;2023-02-15T21:56:45;8.63;;;2.90;;
66145;SDS011;52948;60.040;30.320;2023-02-15T22:01:49;8.25;;;3.85;;
66145;SDS011;52948;60.040;30.320;2023-02-15T22:06:52;6.68;;;3.17;;
66145;SDS011;52948;60.040;30.320;2023-02-15T22:11:54;6.18;;;2.72;;
66145;SDS011;52948;60.040;30.320;2023-02-15T22:16:57;10.38;;;3.03;;
66145;SDS011;52948;60.040;30.320;2023-02-15T22:21:59;7.45;;;3.20;;
66145;SDS011;52948;60.040;30.320;2023-02-15T22:27:02;9.77;;;3.25;;
66145;SDS011;52948;60.040;30.320;2023-02-15T22:32:08;6.72;;;2.95;;
66145;SDS011;52948;60.040;30.320;2023-02-15T22:37:18;5.07;;;2.78;;
66145;SDS011;52948;60.040;30.320;2023-02-15T22:42:24;5.97;;;3.50;;
66145;SDS011;52948;60.040;30.320;2023-02-15T22:47:28;7.53;;;3.15;;
66145;SDS011;52948;60.040;30.320;2023-02-15T22:52:32;7.18;;;3.03;;
66145;SDS011;52948;60.040;30.320;2023-02-15T22:57:35;9.05;;;3.63;;
66145;SDS011;52948;60.040;30.320;2023-02-15T23:02:38;4.03;;;2.45;;
66145;SDS011;52948;60.040;30.320;2023-02-15T23:07:40;7.95;;;2.58;;
66145;SDS011;52948;60.040;30.320;2023-02-15T23:12:43;6.75;;;2.85;;
66145;SDS011;52948;60.040;30.320;2023-02-15T23:23:39;7.00;;;2.50;;
66145;SDS011;52948;60.040;30.320;2023-02-15T23:28:42;4.85;;;2.60;;
66145;SDS011;52948;60.040;30.320;2023-02-15T23:33:45;5.38;;;2.60;;
66145;SDS011;52948;60.040;30.320;2023-02-15T23:38:48;6.82;;;2.88;;
66145;SDS011;52948;60.040;30.320;2023-02-15T23:44:08;5.68;;;2.85;;
66145;SDS011;52948;60.040;30.320;2023-02-15T23:49:12;8.30;;;2.60;;
66145;SDS011;52948;60.040;30.320;2023-02-15T23:54:16;4.22;;;2.53;;
66145;SDS011;52948;60.040;30.320;2023-02-15T23:59:21;5.10;;;2.70;;
